createdAt,value
2019-05-22T00:00:59.942Z,101298.80
2019-05-22T00:04:23.914Z,101299.96
2019-05-22T00:07:51.273Z,101300.66
2019-05-22T00:11:02.132Z,101298.66
2019-05-22T00:14:10.989Z,101300.85
2019-05-22T00:17:27.547Z,101297.72
2019-05-22T00:20:39.487Z,101292.92
2019-05-22T00:23:49.219Z,101302.28
2019-05-22T00:26:58.466Z,101293.03
2019-05-22T00:30:10.127Z,101295.30
2019-05-22T00:33:31.422Z,101297.72
2019-05-22T00:36:40.992Z,101305.32
2019-05-22T00:39:51.793Z,101306.41
2019-05-22T00:43:18.914Z,101301.45
2019-05-22T00:46:28.505Z,101307.39
2019-05-22T00:49:40.121Z,101305.56
2019-05-22T00:53:00.878Z,101308.56
2019-05-22T00:56:55.246Z,101312.45
2019-05-22T01:00:24.686Z,101308.94
2019-05-22T01:03:36.929Z,101321.48
2019-05-22T01:06:58.561Z,101322.11
2019-05-22T01:10:10.612Z,101325.84
2019-05-22T01:13:22.826Z,101333.27
2019-05-22T01:16:33.078Z,101326.39
2019-05-22T01:19:43.777Z,101323.67
2019-05-22T01:22:54.060Z,101320.97
2019-05-22T01:26:03.272Z,101328.72
2019-05-22T01:29:13.751Z,101329.38
2019-05-22T01:32:33.699Z,101335.31
2019-05-22T01:35:49.610Z,101333.67
2019-05-22T01:39:15.063Z,101330.94
2019-05-22T01:42:30.351Z,101330.06
2019-05-22T01:45:40.708Z,101336.03
2019-05-22T01:48:51.982Z,101335.59
2019-05-22T01:52:01.329Z,101338.63
2019-05-22T01:55:10.132Z,101337.34
2019-05-22T01:58:22.022Z,101343.24
2019-05-22T02:01:32.468Z,101351.40
2019-05-22T02:04:42.669Z,101351.36
2019-05-22T02:07:52.004Z,101355.76
2019-05-22T02:11:02.024Z,101358.39
2019-05-22T02:14:15.464Z,101349.69
2019-05-22T02:17:31.772Z,101348.22
2019-05-22T02:20:42.167Z,101339.88
2019-05-22T02:24:02.113Z,101345.66
2019-05-22T02:27:22.401Z,101344.74
2019-05-22T02:30:33.792Z,101349.61
2019-05-22T02:34:00.071Z,101352.98
2019-05-22T02:37:08.948Z,101354.14
2019-05-22T02:40:26.045Z,101362.75
2019-05-22T02:43:36.121Z,101356.45
2019-05-22T02:46:45.162Z,101359.23
2019-05-22T02:49:56.064Z,101364.21
2019-05-22T02:53:08.781Z,101370.18
2019-05-22T02:56:27.639Z,101358.73
2019-05-22T02:59:36.860Z,101362.75
2019-05-22T03:02:57.530Z,101360.66
2019-05-22T03:06:12.419Z,101360.62
2019-05-22T03:09:29.061Z,101372.12
2019-05-22T03:12:39.266Z,101370.95
2019-05-22T03:15:47.991Z,101371.05
2019-05-22T03:19:08.282Z,101370.95
2019-05-22T03:22:27.037Z,101371.39
2019-05-22T03:25:35.570Z,101378.59
2019-05-22T03:28:46.070Z,101391.44
2019-05-22T03:31:55.184Z,101391.00
2019-05-22T03:35:15.697Z,101391.12
2019-05-22T03:38:26.301Z,101393.38
2019-05-22T03:41:35.899Z,101393.67
2019-05-22T03:44:45.428Z,101397.66
2019-05-22T03:47:57.199Z,101398.80
2019-05-22T03:51:17.552Z,101404.14
2019-05-22T03:54:28.009Z,101403.76
2019-05-22T03:57:38.230Z,101410.94
2019-05-22T04:00:47.619Z,101415.25
2019-05-22T04:04:10.045Z,101420.23
2019-05-22T04:07:29.000Z,101413.70
2019-05-22T04:10:52.949Z,101425.88
2019-05-22T04:14:01.755Z,101429.95
2019-05-22T04:17:13.666Z,101425.05
2019-05-22T04:20:23.210Z,101422.48
2019-05-22T04:23:32.511Z,101432.26
2019-05-22T04:26:52.060Z,101422.71
2019-05-22T04:30:00.655Z,101427.72
2019-05-22T04:33:21.443Z,101438.13
2019-05-22T04:36:30.771Z,101444.45
2019-05-22T04:39:41.594Z,101449.47
2019-05-22T04:42:50.936Z,101451.30
2019-05-22T04:46:01.087Z,101453.13
2019-05-22T04:49:10.019Z,101454.14
2019-05-22T04:52:18.776Z,101465.05
2019-05-22T04:55:29.077Z,101469.80
2019-05-22T04:58:37.782Z,101468.83
2019-05-22T05:01:46.941Z,101461.70
2019-05-22T05:04:55.900Z,101462.70
2019-05-22T05:08:16.800Z,101473.89
2019-05-22T05:11:25.575Z,101470.19
2019-05-22T05:14:53.404Z,101474.64
2019-05-22T05:18:14.121Z,101477.44
2019-05-22T05:21:22.701Z,101476.17
2019-05-22T05:24:50.559Z,101486.16
2019-05-22T05:27:59.195Z,101487.52
2019-05-22T05:31:18.567Z,101487.00
2019-05-22T05:35:09.486Z,101492.33
2019-05-22T05:38:20.835Z,101488.84
2019-05-22T05:41:29.785Z,101498.11
2019-05-22T05:44:38.802Z,101501.66
2019-05-22T05:47:48.199Z,101503.43
2019-05-22T05:51:27.650Z,101504.51
2019-05-22T05:54:49.556Z,101509.02
2019-05-22T05:58:27.810Z,101515.08
2019-05-22T06:01:54.935Z,101510.09
2019-05-22T06:05:03.977Z,101528.87
2019-05-22T06:08:12.945Z,101522.04
2019-05-22T06:11:49.395Z,101526.83
2019-05-22T06:14:58.178Z,101527.05
2019-05-22T06:18:38.518Z,101531.84
2019-05-22T06:21:51.454Z,101529.91
2019-05-22T06:25:04.686Z,101541.13
2019-05-22T06:28:15.524Z,101536.15
2019-05-22T06:32:12.555Z,101543.91
2019-05-22T06:35:21.999Z,101552.99
2019-05-22T06:39:03.393Z,101560.34
2019-05-22T06:42:12.140Z,101556.64
2019-05-22T06:45:20.801Z,101569.67
2019-05-22T06:48:29.810Z,101573.12
2019-05-22T06:51:39.598Z,101566.98
2019-05-22T06:54:48.875Z,101576.08
2019-05-22T06:57:57.837Z,101564.82
2019-05-22T07:01:07.695Z,101574.02
2019-05-22T07:04:17.486Z,101570.26
2019-05-22T07:07:29.424Z,101576.80
2019-05-22T07:10:49.167Z,101577.38
2019-05-22T07:13:59.629Z,101589.75
2019-05-22T07:17:10.220Z,101591.27
2019-05-22T07:20:22.119Z,101592.45
2019-05-22T07:23:33.087Z,101595.91
2019-05-22T07:26:42.439Z,101598.62
2019-05-22T07:30:01.284Z,101594.30
2019-05-22T07:33:10.855Z,101605.28
2019-05-22T07:36:20.685Z,101610.90
2019-05-22T07:39:30.813Z,101602.58
2019-05-22T07:42:40.079Z,101600.89
2019-05-22T07:45:59.809Z,101612.14
2019-05-22T07:49:08.523Z,101615.80
2019-05-22T07:52:18.178Z,101616.37
2019-05-22T07:55:28.580Z,101623.48
2019-05-22T07:58:37.164Z,101628.39
2019-05-22T08:01:45.853Z,101629.87
2019-05-22T08:04:56.243Z,101640.58
2019-05-22T08:08:05.126Z,101644.23
2019-05-22T08:11:15.308Z,101647.63
2019-05-22T08:14:25.321Z,101646.09
2019-05-22T08:17:35.300Z,101656.84
2019-05-22T08:20:43.863Z,101651.41
2019-05-22T08:23:54.138Z,101652.70
2019-05-22T08:27:02.825Z,101658.66
2019-05-22T08:30:12.829Z,101655.31
2019-05-22T08:33:23.739Z,101657.77
2019-05-22T08:36:33.127Z,101666.94
2019-05-22T08:39:53.330Z,101674.30
2019-05-22T08:43:02.052Z,101679.56
2019-05-22T08:46:12.701Z,101682.79
2019-05-22T08:49:21.802Z,101679.47
2019-05-22T08:52:31.417Z,101691.13
2019-05-22T08:55:41.257Z,101689.42
2019-05-22T08:59:18.444Z,101686.49
2019-05-22T09:02:12.202Z,101701.62
2019-05-22T09:05:22.055Z,101697.47
2019-05-22T09:08:30.882Z,101706.06
2019-05-22T09:11:49.642Z,101706.98
2019-05-22T09:14:59.687Z,101702.17
2019-05-22T09:18:08.929Z,101706.80
2019-05-22T09:21:18.301Z,101714.42
2019-05-22T09:24:29.153Z,101712.25
2019-05-22T09:27:38.127Z,101724.19
2019-05-22T09:30:46.982Z,101724.52
2019-05-22T09:33:56.137Z,101724.34
2019-05-22T09:37:04.994Z,101729.10
2019-05-22T09:40:14.229Z,101726.34
2019-05-22T09:43:33.739Z,101727.98
2019-05-22T09:46:42.489Z,101730.36
2019-05-22T09:49:51.207Z,101737.74
2019-05-22T09:53:10.220Z,101744.70
2019-05-22T09:56:31.089Z,101742.47
2019-05-22T09:59:39.745Z,101750.85
2019-05-22T10:02:48.452Z,101753.68
2019-05-22T10:05:57.426Z,101757.30
2019-05-22T10:09:08.745Z,101750.70
2019-05-22T10:12:17.692Z,101753.23
2019-05-22T10:15:28.532Z,101757.27
2019-05-22T10:18:37.530Z,101770.99
2019-05-22T10:21:46.226Z,101763.88
2019-05-22T10:25:13.986Z,101769.97
2019-05-22T10:28:08.051Z,101774.83
2019-05-22T10:31:17.968Z,101776.69
2019-05-22T10:34:27.162Z,101785.77
2019-05-22T10:37:35.772Z,101789.78
2019-05-22T10:40:44.614Z,101786.58
2019-05-22T10:43:53.578Z,101776.99
2019-05-22T10:47:04.630Z,101784.59
2019-05-22T10:50:14.279Z,101787.30
2019-05-22T10:53:33.131Z,101788.86
2019-05-22T10:56:33.612Z,101789.93
2019-05-22T10:59:42.325Z,101788.98
2019-05-22T11:02:51.672Z,101790.09
2019-05-22T11:06:07.318Z,101794.75
2019-05-22T11:09:12.121Z,101795.63
2019-05-22T11:12:20.972Z,101796.55
2019-05-22T11:15:29.965Z,101797.83
2019-05-22T11:18:38.967Z,101809.02
2019-05-22T11:21:48.182Z,101805.31
2019-05-22T11:25:08.974Z,101808.73
2019-05-22T11:28:17.525Z,101825.02
2019-05-22T11:31:26.575Z,101810.23
2019-05-22T11:34:36.053Z,101823.22
2019-05-22T11:37:44.821Z,101811.08
2019-05-22T11:40:52.010Z,101820.02
2019-05-22T11:44:00.939Z,101815.52
2019-05-22T11:47:12.307Z,101826.39
2019-05-22T11:50:23.761Z,101832.75
2019-05-22T11:53:34.118Z,101831.95
2019-05-22T11:56:43.135Z,101829.98
2019-05-22T11:59:52.185Z,101823.56
2019-05-22T12:03:03.317Z,101830.69
2019-05-22T12:06:13.761Z,101833.84
2019-05-22T12:09:23.462Z,101837.48
2019-05-22T12:12:35.153Z,101843.75
2019-05-22T12:15:43.096Z,101844.64
2019-05-22T12:18:52.512Z,101850.81
2019-05-22T12:22:01.283Z,101850.59
2019-05-22T12:25:12.434Z,101855.42
2019-05-22T12:28:21.269Z,101851.39
2019-05-22T12:31:40.317Z,101852.61
2019-05-22T12:34:49.479Z,101859.80
2019-05-22T12:38:00.766Z,101859.64
2019-05-22T12:41:10.223Z,101862.06
2019-05-22T12:44:30.378Z,101861.91
2019-05-22T12:47:39.389Z,101855.05
2019-05-22T12:50:48.141Z,101863.42
2019-05-22T12:53:56.891Z,101862.77
2019-05-22T12:57:07.160Z,101858.51
2019-05-22T13:00:16.286Z,101869.64
2019-05-22T13:03:26.086Z,101880.70
2019-05-22T13:06:45.996Z,101872.69
2019-05-22T13:09:54.768Z,101880.51
2019-05-22T13:13:03.781Z,101874.82
2019-05-22T13:16:13.596Z,101881.28
2019-05-22T13:19:35.281Z,101888.66
2019-05-22T13:22:48.543Z,101891.13
2019-05-22T13:25:57.877Z,101884.59
2019-05-22T13:29:08.805Z,101886.83
2019-05-22T13:32:20.125Z,101879.73
2019-05-22T13:35:29.378Z,101879.48
2019-05-22T13:38:38.994Z,101884.26
2019-05-22T13:41:48.345Z,101884.92
2019-05-22T13:44:58.007Z,101884.48
2019-05-22T13:48:06.839Z,101881.79
2019-05-22T13:51:16.280Z,101880.38
2019-05-22T13:54:26.653Z,101896.67
2019-05-22T13:57:35.759Z,101900.94
2019-05-22T14:00:45.368Z,101894.03
2019-05-22T14:03:54.335Z,101904.02
2019-05-22T14:07:06.495Z,101899.16
2019-05-22T14:10:16.215Z,101907.92
2019-05-22T14:13:36.764Z,101899.94
2019-05-22T14:16:49.236Z,101910.39
2019-05-22T14:19:56.436Z,101896.06
2019-05-22T14:23:05.152Z,101909.52
2019-05-22T14:26:14.327Z,101903.89
2019-05-22T14:29:33.230Z,101913.83
2019-05-22T14:32:42.683Z,101908.63
2019-05-22T14:35:52.715Z,101907.22
2019-05-22T14:39:14.302Z,101908.37
2019-05-22T14:42:23.709Z,101911.47
2019-05-22T14:45:32.875Z,101910.16
2019-05-22T14:48:52.358Z,101919.51
2019-05-22T14:52:01.068Z,101923.54
2019-05-22T14:55:10.347Z,101919.00
2019-05-22T14:58:29.634Z,101907.65
2019-05-22T15:01:49.463Z,101913.69
2019-05-22T15:05:10.967Z,101911.48
2019-05-22T15:08:30.077Z,101904.36
2019-05-22T15:11:38.937Z,101910.89
2019-05-22T15:14:47.852Z,101907.92
2019-05-22T15:17:56.901Z,101911.75
2019-05-22T15:21:17.668Z,101909.53
2019-05-22T15:24:27.581Z,101908.36
2019-05-22T15:27:37.448Z,101913.17
2019-05-22T15:30:47.028Z,101921.25
2019-05-22T15:33:56.299Z,101919.73
2019-05-22T15:37:24.094Z,101919.76
2019-05-22T15:40:47.039Z,101912.92
2019-05-22T15:43:55.785Z,101915.78
2019-05-22T15:47:06.802Z,101920.61
2019-05-22T15:50:19.780Z,101919.24
2019-05-22T15:53:29.717Z,101907.61
2019-05-22T15:56:40.558Z,101916.56
2019-05-22T15:59:50.290Z,101909.76
2019-05-22T16:03:21.214Z,101908.27
2019-05-22T16:06:31.649Z,101912.93
2019-05-22T16:09:41.057Z,101906.86
2019-05-22T16:12:51.839Z,101916.59
2019-05-22T16:16:13.273Z,101918.86
2019-05-22T16:19:25.760Z,101919.85
2019-05-22T16:22:35.279Z,101915.51
2019-05-22T16:25:55.508Z,101918.23
2019-05-22T16:29:04.620Z,101917.39
2019-05-22T16:32:14.661Z,101921.47
2019-05-22T16:35:25.416Z,101925.22
2019-05-22T16:38:34.810Z,101924.27
2019-05-22T16:41:55.184Z,101922.97
2019-05-22T16:45:05.567Z,101925.45
2019-05-22T16:48:28.345Z,101927.16
2019-05-22T16:51:28.963Z,101924.44
2019-05-22T16:54:50.687Z,101941.05
2019-05-22T16:57:59.242Z,101930.16
2019-05-22T17:01:10.283Z,101937.53
2019-05-22T17:04:19.627Z,101943.75
2019-05-22T17:07:29.010Z,101943.61
2019-05-22T17:10:37.815Z,101945.48
2019-05-22T17:13:47.562Z,101944.84
2019-05-22T17:16:56.364Z,101946.38
2019-05-22T17:20:06.574Z,101951.17
2019-05-22T17:23:15.454Z,101946.64
2019-05-22T17:26:25.637Z,101952.27
2019-05-22T17:29:35.497Z,101952.78
2019-05-22T17:32:45.735Z,101945.84
2019-05-22T17:35:55.091Z,101948.16
2019-05-22T17:39:05.511Z,101942.44
2019-05-22T17:42:16.895Z,101946.11
2019-05-22T17:45:28.420Z,101947.63
2019-05-22T17:48:55.174Z,101943.47
2019-05-22T17:52:05.963Z,101948.28
2019-05-22T17:55:16.352Z,101944.02
2019-05-22T17:58:29.773Z,101946.68
2019-05-22T18:01:35.786Z,101945.98
2019-05-22T18:04:45.909Z,101943.58
2019-05-22T18:07:55.733Z,101941.19
2019-05-22T18:11:07.476Z,101951.39
2019-05-22T18:14:26.999Z,101957.31
2019-05-22T18:17:36.251Z,101957.30
2019-05-22T18:20:45.510Z,101966.02
2019-05-22T18:23:54.884Z,101963.05
2019-05-22T18:27:15.028Z,101964.95
2019-05-22T18:30:38.149Z,101972.76
2019-05-22T18:33:46.753Z,101977.67
2019-05-22T18:36:55.571Z,101974.03
2019-05-22T18:40:04.540Z,101966.28
2019-05-22T18:43:14.090Z,101975.55
2019-05-22T18:46:22.784Z,101970.30
2019-05-22T18:49:30.024Z,101980.29
2019-05-22T18:52:41.459Z,101975.63
2019-05-22T18:56:01.095Z,101985.20
2019-05-22T18:59:09.729Z,101977.80
2019-05-22T19:02:18.539Z,101977.21
2019-05-22T19:05:30.482Z,101983.83
2019-05-22T19:08:40.013Z,101985.93
2019-05-22T19:11:48.557Z,101990.67
2019-05-22T19:14:57.497Z,101999.34
2019-05-22T19:18:06.856Z,102003.29
2019-05-22T19:21:15.775Z,102000.06
2019-05-22T19:24:24.662Z,102004.26
2019-05-22T19:27:34.599Z,101997.41
2019-05-22T19:30:53.966Z,101999.22
2019-05-22T19:34:14.479Z,101999.73
2019-05-22T19:37:23.027Z,102005.88
2019-05-22T19:40:32.209Z,101999.66
2019-05-22T19:43:40.850Z,102010.12
2019-05-22T19:46:50.884Z,102015.88
2019-05-22T19:50:00.336Z,102012.36
2019-05-22T19:53:18.638Z,102012.73
2019-05-22T19:56:23.806Z,102024.43
2019-05-22T19:59:41.893Z,102016.30
2019-05-22T20:02:51.113Z,102013.96
2019-05-22T20:06:11.798Z,102015.14
2019-05-22T20:09:20.589Z,102015.52
2019-05-22T20:12:29.700Z,102016.72
2019-05-22T20:15:38.934Z,102021.97
2019-05-22T20:18:47.744Z,102018.08
2019-05-22T20:21:59.954Z,102017.05
2019-05-22T20:25:08.935Z,102019.94
2019-05-22T20:28:17.578Z,102017.92
2019-05-22T20:31:26.989Z,102024.36
2019-05-22T20:34:36.309Z,102018.11
2019-05-22T20:37:46.346Z,102023.02
2019-05-22T20:40:54.853Z,102021.66
2019-05-22T20:44:13.916Z,102015.91
2019-05-22T20:47:33.678Z,102014.72
2019-05-22T20:50:43.380Z,102023.55
2019-05-22T20:53:54.629Z,102013.54
2019-05-22T20:57:04.666Z,102017.95
2019-05-22T21:00:17.230Z,102014.55
2019-05-22T21:03:37.589Z,102016.59
2019-05-22T21:07:00.353Z,102023.70
2019-05-22T21:10:23.507Z,102019.14
2019-05-22T21:13:32.914Z,102027.26
2019-05-22T21:16:42.683Z,102024.72
2019-05-22T21:19:52.594Z,102032.17
2019-05-22T21:23:12.728Z,102033.80
2019-05-22T21:26:22.218Z,102035.31
2019-05-22T21:29:31.070Z,102039.89
2019-05-22T21:32:40.658Z,102032.10
2019-05-22T21:35:49.468Z,102033.47
2019-05-22T21:38:58.597Z,102036.32
2019-05-22T21:42:07.786Z,102033.62
2019-05-22T21:45:17.788Z,102034.80
2019-05-22T21:48:27.431Z,102035.33
2019-05-22T21:51:38.052Z,102035.14
2019-05-22T21:54:57.683Z,102037.02
2019-05-22T21:58:07.445Z,102038.02
2019-05-22T22:01:32.569Z,102031.41
2019-05-22T22:04:41.476Z,102030.22
2019-05-22T22:07:50.709Z,102035.30
2019-05-22T22:11:01.237Z,102035.78
2019-05-22T22:14:21.209Z,102040.02
2019-05-22T22:17:30.900Z,102040.83
2019-05-22T22:20:40.023Z,102038.14
2019-05-22T22:23:59.093Z,102037.95
2019-05-22T22:27:10.424Z,102037.25
2019-05-22T22:30:28.182Z,102041.78
2019-05-22T22:34:03.774Z,102044.48
2019-05-22T22:37:13.324Z,102051.05
2019-05-22T22:40:27.436Z,102058.80
2019-05-22T22:43:49.105Z,102051.22
2019-05-22T22:47:03.915Z,102062.69
2019-05-22T22:50:15.887Z,102058.80
2019-05-22T22:53:25.662Z,102055.91
2019-05-22T22:56:34.272Z,102062.81
2019-05-22T22:59:43.037Z,102065.02
2019-05-22T23:02:53.101Z,102063.28
2019-05-22T23:06:03.114Z,102060.96
2019-05-22T23:09:14.959Z,102062.47
2019-05-22T23:12:37.990Z,102058.54
2019-05-22T23:16:00.470Z,102061.47
2019-05-22T23:19:33.920Z,102061.63
2019-05-22T23:22:40.500Z,102058.07
2019-05-22T23:26:00.185Z,102056.91
2019-05-22T23:29:09.551Z,102060.93
2019-05-22T23:32:21.245Z,102053.83
2019-05-22T23:35:31.386Z,102059.92
2019-05-22T23:38:41.664Z,102055.17
2019-05-22T23:41:55.986Z,102055.20
2019-05-22T23:45:04.777Z,102046.60
2019-05-22T23:48:16.476Z,102046.91
2019-05-22T23:51:25.753Z,102050.63
2019-05-22T23:54:35.549Z,102050.94
2019-05-22T23:57:44.181Z,102050.78
